createdAt,value
2023-02-02T00:02:07.426Z,6.25
2023-02-02T00:04:35.599Z,6.82
2023-02-02T00:07:03.026Z,6.50
2023-02-02T00:09:30.995Z,7.88
2023-02-02T00:11:58.769Z,7.03
2023-02-02T00:14:26.695Z,7.97
2023-02-02T00:16:56.990Z,7.10
2023-02-02T00:19:30.046Z,6.88
2023-02-02T00:21:57.077Z,7.28
2023-02-02T00:24:24.081Z,9.00
2023-02-02T00:26:52.887Z,9.55
2023-02-02T00:29:24.938Z,9.63
2023-02-02T00:31:51.868Z,8.73
2023-02-02T00:34:18.658Z,10.13
2023-02-02T00:36:45.597Z,8.32
2023-02-02T00:39:16.013Z,9.40
2023-02-02T00:41:42.488Z,9.43
2023-02-02T00:44:27.613Z,10.07
2023-02-02T00:46:54.166Z,10.55
2023-02-02T00:49:20.678Z,11.95
2023-02-02T00:51:47.153Z,12.60
2023-02-02T00:54:14.365Z,11.20
2023-02-02T00:56:41.350Z,10.00
2023-02-02T00:59:07.916Z,9.57
2023-02-02T01:01:34.458Z,9.77
2023-02-02T01:04:01.637Z,8.55
2023-02-02T01:06:28.115Z,8.57
2023-02-02T01:08:54.633Z,7.32
2023-02-02T01:11:21.183Z,6.97
2023-02-02T01:13:47.795Z,8.02
2023-02-02T01:16:14.360Z,6.95
2023-02-02T01:18:41.057Z,6.35
2023-02-02T01:21:10.164Z,6.82
2023-02-02T01:23:37.720Z,5.38
2023-02-02T01:26:06.091Z,5.80
2023-02-02T01:28:32.590Z,5.65
2023-02-02T01:30:59.427Z,4.80
2023-02-02T01:33:25.891Z,4.22
2023-02-02T01:35:54.661Z,6.55
2023-02-02T01:38:21.746Z,5.00
2023-02-02T01:40:55.988Z,4.93
2023-02-02T01:43:23.749Z,4.93
2023-02-02T01:45:52.124Z,4.13
2023-02-02T01:48:20.603Z,4.72
2023-02-02T01:50:49.860Z,4.75
2023-02-02T01:53:17.481Z,4.20
2023-02-02T01:55:44.365Z,4.68
2023-02-02T01:58:16.836Z,5.50
2023-02-02T02:00:45.646Z,6.10
2023-02-02T02:03:16.026Z,6.93
2023-02-02T02:06:10.284Z,6.70
2023-02-02T02:08:47.247Z,8.48
2023-02-02T02:11:14.055Z,7.80
2023-02-02T02:13:59.192Z,8.75
2023-02-02T02:16:34.896Z,9.90
2023-02-02T02:19:27.873Z,9.77
2023-02-02T02:22:19.493Z,12.15
2023-02-02T02:25:07.820Z,11.40
2023-02-02T02:27:56.223Z,11.65
2023-02-02T02:30:31.663Z,10.52
2023-02-02T02:33:04.046Z,10.73
2023-02-02T02:35:59.402Z,11.07
2023-02-02T02:38:35.007Z,10.93
2023-02-02T02:41:04.929Z,9.35
2023-02-02T02:43:35.377Z,10.07
2023-02-02T02:46:02.640Z,10.13
2023-02-02T02:48:29.628Z,9.57
2023-02-02T02:51:29.237Z,8.85
2023-02-02T02:53:56.221Z,7.88
2023-02-02T02:56:48.766Z,8.30
2023-02-02T02:59:30.720Z,7.75
2023-02-02T03:02:00.235Z,6.75
2023-02-02T03:04:44.499Z,7.45
2023-02-02T03:07:17.772Z,6.68
2023-02-02T03:09:45.171Z,7.55
2023-02-02T03:12:11.718Z,7.07
2023-02-02T03:14:39.443Z,6.22
2023-02-02T03:17:06.990Z,7.30
2023-02-02T03:19:33.669Z,6.10
2023-02-02T03:22:00.139Z,6.60
2023-02-02T03:24:26.707Z,5.38
2023-02-02T03:26:53.314Z,5.15
2023-02-02T03:29:19.794Z,4.57
2023-02-02T03:31:46.465Z,4.70
2023-02-02T03:34:12.937Z,4.07
2023-02-02T03:36:39.331Z,3.65
2023-02-02T03:39:05.707Z,3.90
2023-02-02T03:41:32.179Z,3.90
2023-02-02T03:43:58.585Z,3.88
2023-02-02T03:46:25.022Z,4.72
2023-02-02T03:48:51.562Z,4.93
2023-02-02T03:51:18.055Z,5.55
2023-02-02T03:53:44.709Z,4.88
2023-02-02T03:56:11.175Z,5.47
2023-02-02T03:58:37.692Z,6.53
2023-02-02T04:01:08.807Z,6.35
2023-02-02T04:03:35.253Z,5.53
2023-02-02T04:06:01.743Z,6.70
2023-02-02T04:08:28.679Z,8.13
2023-02-02T04:10:55.131Z,7.88
2023-02-02T04:13:21.583Z,7.80
2023-02-02T04:15:48.178Z,8.68
2023-02-02T04:18:14.650Z,9.70
2023-02-02T04:20:41.134Z,9.90
2023-02-02T04:23:07.614Z,10.70
2023-02-02T04:25:34.207Z,11.32
2023-02-02T04:28:00.643Z,9.73
2023-02-02T04:30:27.119Z,10.93
2023-02-02T04:32:54.888Z,11.27
2023-02-02T04:35:21.375Z,11.65
2023-02-02T04:37:47.866Z,10.55
2023-02-02T04:40:14.524Z,11.93
2023-02-02T04:42:41.043Z,10.98
2023-02-02T04:45:07.943Z,14.18
2023-02-02T04:47:34.408Z,16.42
2023-02-02T04:50:00.922Z,18.58
2023-02-02T04:52:28.983Z,18.70
2023-02-02T04:54:55.441Z,21.13
2023-02-02T04:57:21.924Z,22.27
2023-02-02T04:59:48.389Z,22.42
2023-02-02T05:02:14.916Z,23.38
2023-02-02T05:04:41.524Z,22.90
2023-02-02T05:07:08.173Z,24.23
2023-02-02T05:09:34.873Z,21.73
2023-02-02T05:12:01.370Z,21.60
2023-02-02T05:14:27.909Z,20.48
2023-02-02T05:17:02.011Z,20.20
2023-02-02T05:19:28.701Z,19.63
2023-02-02T05:21:55.812Z,16.73
2023-02-02T05:24:22.251Z,19.65
2023-02-02T05:26:48.840Z,17.00
2023-02-02T05:29:15.391Z,16.90
2023-02-02T05:31:41.862Z,17.35
2023-02-02T05:34:11.356Z,16.27
2023-02-02T05:36:37.924Z,13.52
2023-02-02T05:39:05.613Z,14.70
2023-02-02T05:41:32.196Z,13.95
2023-02-02T05:44:01.851Z,13.77
2023-02-02T05:46:28.638Z,12.65
2023-02-02T05:48:55.192Z,13.18
2023-02-02T05:51:28.128Z,11.98
2023-02-02T05:53:54.817Z,13.25
2023-02-02T05:56:21.405Z,11.85
2023-02-02T05:58:49.870Z,11.27
2023-02-02T06:01:17.616Z,12.95
2023-02-02T06:03:44.261Z,11.50
2023-02-02T06:06:10.811Z,11.30
2023-02-02T06:08:37.277Z,12.27
2023-02-02T06:11:16.107Z,11.38
2023-02-02T06:13:44.865Z,11.80
2023-02-02T06:16:12.648Z,11.85
2023-02-02T06:18:39.160Z,11.20
2023-02-02T06:21:06.354Z,11.63
2023-02-02T06:23:33.708Z,11.38
2023-02-02T06:26:00.721Z,12.05
2023-02-02T06:28:27.243Z,12.52
2023-02-02T06:30:53.765Z,12.82
2023-02-02T06:33:20.355Z,12.50
2023-02-02T06:35:47.049Z,12.00
2023-02-02T06:38:13.607Z,12.63
2023-02-02T06:40:40.064Z,13.32
2023-02-02T06:43:06.766Z,13.65
2023-02-02T06:45:33.438Z,14.13
2023-02-02T06:48:03.865Z,13.73
2023-02-02T06:50:30.415Z,13.77
2023-02-02T06:52:56.888Z,13.13
2023-02-02T06:55:23.698Z,12.63
2023-02-02T06:57:56.573Z,12.85
2023-02-02T07:00:23.182Z,12.63
2023-02-02T07:02:49.694Z,12.60
2023-02-02T07:05:16.349Z,14.52
2023-02-02T07:07:42.771Z,13.75
2023-02-02T07:10:09.568Z,13.90
2023-02-02T07:12:56.201Z,13.40
2023-02-02T07:15:23.160Z,13.88
2023-02-02T07:17:49.938Z,13.23
2023-02-02T07:20:16.776Z,14.48
2023-02-02T07:22:43.389Z,15.15
2023-02-02T07:25:09.908Z,14.15
2023-02-02T07:27:36.387Z,14.45
2023-02-02T07:30:04.074Z,13.80
2023-02-02T07:32:30.557Z,14.70
2023-02-02T07:34:57.027Z,13.85
2023-02-02T07:37:30.129Z,15.30
2023-02-02T07:39:56.723Z,13.93
2023-02-02T07:42:23.198Z,17.60
2023-02-02T07:44:49.664Z,15.65
2023-02-02T07:47:17.328Z,15.80
2023-02-02T07:49:45.048Z,14.88
2023-02-02T07:52:11.527Z,14.93
2023-02-02T07:54:38.007Z,14.10
2023-02-02T07:57:04.663Z,13.98
2023-02-02T07:59:32.428Z,14.48
2023-02-02T08:01:59.151Z,14.02
2023-02-02T08:04:25.646Z,16.33
2023-02-02T08:06:52.125Z,13.20
2023-02-02T08:09:18.549Z,16.08
2023-02-02T08:11:45.026Z,15.13
2023-02-02T08:14:14.225Z,15.07
2023-02-02T08:16:40.747Z,15.77
2023-02-02T08:19:07.251Z,15.52
2023-02-02T08:21:34.745Z,15.00
2023-02-02T08:24:02.500Z,15.52
2023-02-02T08:26:30.151Z,16.98
2023-02-02T08:28:59.321Z,15.95
2023-02-02T08:31:37.939Z,16.80
2023-02-02T08:34:05.078Z,17.65
2023-02-02T08:36:32.068Z,16.58
2023-02-02T08:39:03.444Z,17.70
2023-02-02T08:41:30.381Z,17.05
2023-02-02T08:43:56.899Z,17.08
2023-02-02T08:46:23.471Z,17.15
2023-02-02T08:48:50.109Z,16.80
2023-02-02T08:51:18.743Z,17.27
2023-02-02T08:53:46.301Z,18.50
2023-02-02T08:56:17.937Z,18.58
2023-02-02T08:58:46.734Z,16.38
2023-02-02T09:01:15.932Z,17.27
2023-02-02T09:03:42.552Z,18.40
2023-02-02T09:06:14.659Z,19.15
2023-02-02T09:08:41.678Z,19.83
2023-02-02T09:11:11.612Z,19.02
2023-02-02T09:13:39.662Z,18.67
2023-02-02T09:16:08.549Z,19.98
2023-02-02T09:18:35.196Z,18.10
2023-02-02T09:21:04.589Z,19.83
2023-02-02T09:23:35.104Z,20.48
2023-02-02T09:26:12.831Z,18.45
2023-02-02T09:28:40.878Z,19.25
2023-02-02T09:31:08.040Z,20.88
2023-02-02T09:33:35.399Z,19.70
2023-02-02T09:36:12.821Z,20.35
2023-02-02T09:38:40.710Z,19.60
2023-02-02T09:41:41.497Z,18.50
2023-02-02T09:44:22.889Z,20.13
2023-02-02T09:47:19.721Z,21.70
2023-02-02T09:49:49.075Z,20.65
2023-02-02T09:52:48.615Z,20.48
2023-02-02T09:55:32.223Z,21.35
2023-02-02T09:58:15.381Z,21.08
2023-02-02T10:01:17.920Z,21.38
2023-02-02T10:04:00.560Z,20.52
2023-02-02T10:06:47.113Z,20.92
2023-02-02T10:09:52.026Z,19.05
2023-02-02T10:16:06.831Z,19.48
2023-02-02T10:19:06.303Z,18.40
2023-02-02T10:21:55.115Z,18.42
2023-02-02T10:24:31.663Z,17.55
2023-02-02T10:27:04.595Z,18.75
2023-02-02T10:30:04.859Z,17.52
2023-02-02T10:33:26.570Z,19.20
2023-02-02T10:36:42.565Z,20.10
2023-02-02T10:39:59.569Z,19.23
2023-02-02T10:45:23.076Z,18.27
2023-02-02T10:47:59.371Z,19.17
2023-02-02T10:50:31.518Z,19.10
2023-02-02T10:53:04.297Z,19.45
2023-02-02T10:55:46.275Z,18.88
2023-02-02T11:01:05.485Z,17.70
2023-02-02T11:03:42.455Z,17.60
2023-02-02T11:06:44.503Z,16.95
2023-02-02T11:09:15.807Z,17.77
2023-02-02T11:11:47.470Z,17.20
2023-02-02T11:14:52.903Z,14.93
2023-02-02T11:17:29.924Z,16.08
2023-02-02T11:20:00.575Z,16.13
2023-02-02T11:22:40.030Z,15.68
2023-02-02T11:25:25.653Z,14.25
2023-02-02T11:27:53.655Z,15.55
2023-02-02T11:30:38.589Z,16.50
2023-02-02T11:33:34.137Z,15.93
2023-02-02T11:36:12.903Z,14.50
2023-02-02T11:41:22.352Z,14.23
2023-02-02T11:44:07.643Z,13.27
2023-02-02T11:46:40.466Z,13.10
2023-02-02T11:49:17.481Z,13.10
2023-02-02T11:51:53.671Z,16.17
2023-02-02T11:54:31.586Z,13.63
2023-02-02T11:57:07.482Z,11.85
2023-02-02T11:59:49.017Z,13.82
2023-02-02T12:02:44.882Z,11.80
2023-02-02T12:05:35.510Z,12.43
2023-02-02T12:08:13.727Z,11.57
2023-02-02T12:11:10.507Z,10.77
2023-02-02T12:16:55.003Z,11.85
2023-02-02T12:19:28.446Z,11.60
2023-02-02T12:22:24.173Z,12.10
2023-02-02T12:27:28.249Z,12.60
2023-02-02T12:30:43.420Z,12.05
2023-02-02T12:33:41.834Z,13.02
2023-02-02T12:36:26.097Z,13.13
2023-02-02T12:39:11.484Z,12.73
2023-02-02T12:41:59.929Z,15.02
2023-02-02T12:44:39.109Z,15.55
2023-02-02T12:47:16.767Z,14.30
2023-02-02T12:50:08.356Z,13.98
2023-02-02T12:52:47.152Z,14.82
2023-02-02T12:55:18.435Z,14.98
2023-02-02T12:58:07.835Z,14.68
2023-02-02T13:01:06.318Z,15.20
2023-02-02T13:03:41.374Z,15.80
2023-02-02T13:06:42.932Z,16.00
2023-02-02T13:09:18.352Z,16.65
2023-02-02T13:11:50.801Z,16.15
2023-02-02T13:14:24.390Z,16.75
2023-02-02T13:16:54.584Z,16.77
2023-02-02T13:19:26.599Z,16.92
2023-02-02T13:21:57.084Z,18.95
2023-02-02T13:24:28.180Z,18.90
2023-02-02T13:32:40.521Z,17.13
2023-02-02T13:35:20.843Z,19.02
2023-02-02T13:38:12.277Z,17.73
2023-02-02T13:40:40.675Z,18.58
2023-02-02T13:43:32.292Z,16.17
2023-02-02T13:46:23.632Z,14.40
2023-02-02T13:49:06.700Z,14.10
2023-02-02T13:51:59.267Z,14.35
2023-02-02T13:54:53.405Z,13.80
2023-02-02T14:00:00.928Z,14.48
2023-02-02T14:02:40.687Z,14.30
2023-02-02T14:05:08.969Z,15.00
2023-02-02T14:07:43.245Z,14.40
2023-02-02T14:10:34.588Z,13.95
2023-02-02T14:13:30.294Z,14.77
2023-02-02T14:16:03.729Z,15.30
2023-02-02T14:18:49.061Z,14.65
2023-02-02T14:21:33.984Z,15.23
2023-02-02T14:24:04.921Z,12.45
2023-02-02T14:29:46.992Z,13.13
2023-02-02T14:32:27.814Z,12.48
2023-02-02T14:35:13.835Z,12.07
2023-02-02T14:38:14.577Z,11.73
2023-02-02T14:40:44.022Z,13.05
2023-02-02T14:43:45.752Z,14.13
2023-02-02T14:46:15.574Z,17.75
2023-02-02T14:48:46.684Z,16.75
2023-02-02T14:53:49.573Z,16.75
2023-02-02T14:56:17.205Z,16.88
2023-02-02T14:58:53.985Z,15.82
2023-02-02T15:01:26.185Z,16.08
2023-02-02T15:03:56.663Z,16.50
2023-02-02T15:06:23.167Z,15.13
2023-02-02T15:09:29.289Z,17.02
2023-02-02T15:12:00.871Z,16.85
2023-02-02T15:14:52.955Z,17.90
2023-02-02T15:17:33.724Z,15.57
2023-02-02T15:20:09.005Z,17.10
2023-02-02T15:22:41.475Z,16.13
2023-02-02T15:25:35.590Z,15.57
2023-02-02T15:28:21.639Z,16.75
2023-02-02T15:30:58.807Z,17.92
2023-02-02T15:33:30.835Z,15.57
2023-02-02T15:36:04.021Z,15.15
2023-02-02T15:38:37.164Z,16.30
2023-02-02T15:41:23.531Z,15.68
2023-02-02T15:43:53.405Z,16.98
2023-02-02T15:46:33.153Z,16.95
2023-02-02T15:49:33.929Z,18.55
2023-02-02T15:52:26.260Z,15.85
2023-02-02T15:57:53.151Z,19.85
2023-02-02T16:00:41.618Z,19.33
2023-02-02T16:03:27.784Z,19.80
2023-02-02T16:06:07.142Z,23.75
2023-02-02T16:08:38.042Z,23.67
2023-02-02T16:11:34.596Z,26.52
2023-02-02T16:14:07.536Z,22.52
2023-02-02T16:16:52.375Z,26.13
2023-02-02T16:19:27.104Z,26.85
2023-02-02T16:22:05.738Z,25.80
2023-02-02T16:24:44.637Z,25.83
2023-02-02T16:27:32.069Z,27.95
2023-02-02T16:30:09.021Z,25.42
2023-02-02T16:32:38.948Z,24.35
2023-02-02T16:35:07.508Z,24.88
2023-02-02T16:37:36.427Z,25.02
2023-02-02T16:40:26.521Z,28.58
2023-02-02T16:43:25.795Z,25.83
2023-02-02T16:45:56.289Z,25.80
2023-02-02T16:48:45.155Z,26.30
2023-02-02T16:51:17.911Z,24.52
2023-02-02T16:53:55.231Z,24.73
2023-02-02T16:56:44.138Z,23.50
2023-02-02T16:59:25.912Z,24.15
2023-02-02T17:01:55.010Z,22.08
2023-02-02T17:04:31.049Z,22.98
2023-02-02T17:07:05.974Z,22.73
2023-02-02T17:09:35.599Z,23.77
2023-02-02T17:12:32.681Z,22.30
2023-02-02T17:15:22.396Z,22.05
2023-02-02T17:17:49.217Z,20.15
2023-02-02T17:20:17.792Z,22.67
2023-02-02T17:22:47.850Z,21.38
2023-02-02T17:25:17.188Z,20.37
2023-02-02T17:27:45.197Z,20.35
2023-02-02T17:30:17.273Z,21.52
2023-02-02T17:32:43.780Z,22.15
2023-02-02T17:35:19.359Z,21.30
2023-02-02T17:37:45.836Z,22.25
2023-02-02T17:40:16.001Z,21.83
2023-02-02T17:42:44.103Z,21.40
2023-02-02T17:45:15.032Z,22.85
2023-02-02T17:50:08.130Z,20.98
2023-02-02T17:52:34.744Z,22.13
2023-02-02T17:55:01.192Z,21.80
2023-02-02T17:57:27.640Z,20.75
2023-02-02T17:59:54.319Z,21.90
2023-02-02T18:02:20.814Z,20.95
2023-02-02T18:04:47.271Z,20.10
2023-02-02T18:07:14.591Z,18.63
2023-02-02T18:09:41.066Z,18.80
2023-02-02T18:12:07.714Z,17.35
2023-02-02T18:14:34.190Z,16.98
2023-02-02T18:17:02.178Z,18.90
2023-02-02T18:19:28.804Z,16.25
2023-02-02T18:21:55.282Z,15.27
2023-02-02T18:24:21.805Z,16.27
2023-02-02T18:26:48.524Z,15.27
2023-02-02T18:29:15.998Z,15.10
2023-02-02T18:31:42.641Z,16.27
2023-02-02T18:34:09.426Z,15.32
2023-02-02T18:36:38.317Z,14.38
2023-02-02T18:39:04.861Z,14.73
2023-02-02T18:41:31.578Z,14.65
2023-02-02T18:43:58.156Z,14.10
2023-02-02T18:46:26.618Z,13.90
2023-02-02T18:49:02.303Z,14.68
2023-02-02T18:51:30.152Z,15.27
2023-02-02T18:54:11.162Z,15.80
2023-02-02T19:01:46.493Z,17.55
2023-02-02T19:04:13.199Z,17.80
2023-02-02T19:06:58.621Z,19.40
2023-02-02T19:09:27.365Z,19.33
2023-02-02T19:11:55.030Z,23.08
2023-02-02T19:14:43.773Z,23.77
2023-02-02T19:17:25.496Z,25.50
2023-02-02T19:19:52.650Z,25.92
2023-02-02T19:22:28.734Z,28.00
2023-02-02T19:27:40.957Z,28.67
2023-02-02T19:30:17.189Z,30.17
2023-02-02T19:32:45.158Z,29.88
2023-02-02T19:35:18.561Z,28.67
2023-02-02T19:37:47.264Z,30.17
2023-02-02T19:40:22.157Z,31.88
2023-02-02T19:42:58.680Z,32.95
2023-02-02T19:45:33.380Z,30.98
2023-02-02T19:48:01.966Z,29.45
2023-02-02T19:50:33.712Z,31.15
2023-02-02T19:53:02.306Z,28.00
2023-02-02T19:55:30.509Z,29.30
2023-02-02T19:58:02.552Z,31.30
2023-02-02T20:00:31.503Z,28.63
2023-02-02T20:02:59.060Z,28.63
2023-02-02T20:05:29.294Z,28.55
2023-02-02T20:08:21.039Z,29.50
2023-02-02T20:10:47.844Z,27.95
2023-02-02T20:13:24.819Z,30.05
2023-02-02T20:15:54.683Z,28.27
2023-02-02T20:18:25.153Z,28.23
2023-02-02T20:20:54.393Z,29.05
2023-02-02T20:23:39.884Z,29.92
2023-02-02T20:26:36.658Z,28.95
2023-02-02T20:29:24.123Z,30.38
2023-02-02T20:31:54.952Z,28.10
2023-02-02T20:34:30.214Z,27.75
2023-02-02T20:37:02.797Z,30.23
2023-02-02T20:39:36.399Z,30.38
2023-02-02T20:42:03.969Z,31.10
2023-02-02T20:45:04.367Z,30.70
2023-02-02T20:47:30.924Z,32.33
2023-02-02T20:50:00.394Z,31.60
2023-02-02T20:52:30.863Z,32.45
2023-02-02T20:54:58.328Z,31.92
2023-02-02T20:57:24.795Z,30.42
2023-02-02T20:59:57.409Z,30.00
2023-02-02T21:02:27.573Z,29.73
2023-02-02T21:04:54.254Z,30.50
2023-02-02T21:07:21.324Z,28.20
2023-02-02T21:09:49.555Z,26.63
2023-02-02T21:12:17.075Z,28.10
2023-02-02T21:14:45.126Z,28.60
2023-02-02T21:17:16.041Z,26.70
2023-02-02T21:19:43.610Z,25.55
2023-02-02T21:22:10.949Z,24.73
2023-02-02T21:24:37.660Z,24.67
2023-02-02T21:27:04.599Z,24.55
2023-02-02T21:29:32.144Z,24.50
2023-02-02T21:32:02.550Z,22.85
2023-02-02T21:34:29.947Z,20.65
2023-02-02T21:36:58.228Z,22.20
2023-02-02T21:39:33.668Z,20.33
2023-02-02T21:42:12.335Z,21.50
2023-02-02T21:44:44.192Z,22.23
2023-02-02T21:47:23.019Z,21.67
2023-02-02T21:49:49.523Z,20.52
2023-02-02T21:52:17.860Z,19.65
2023-02-02T21:54:44.795Z,20.48
2023-02-02T21:57:20.782Z,20.88
2023-02-02T21:59:55.607Z,19.40
2023-02-02T22:02:44.581Z,19.58
2023-02-02T22:05:36.067Z,19.45
2023-02-02T22:08:25.376Z,19.90
2023-02-02T22:10:51.957Z,20.13
2023-02-02T22:13:21.716Z,22.55
2023-02-02T22:15:50.911Z,21.33
2023-02-02T22:18:24.165Z,22.27
2023-02-02T22:20:54.460Z,21.85
2023-02-02T22:23:25.548Z,21.77
2023-02-02T22:25:54.350Z,22.70
2023-02-02T22:28:33.381Z,23.02
2023-02-02T22:31:00.875Z,23.77
2023-02-02T22:33:27.589Z,22.52
2023-02-02T22:35:54.313Z,21.60
2023-02-02T22:38:23.267Z,22.70
2023-02-02T22:40:50.689Z,22.48
2023-02-02T22:43:18.505Z,22.77
2023-02-02T22:45:45.561Z,23.27
2023-02-02T22:48:13.454Z,22.85
2023-02-02T22:50:40.042Z,22.65
2023-02-02T22:53:06.498Z,21.52
2023-02-02T22:55:33.318Z,22.50
2023-02-02T22:57:59.813Z,21.05
2023-02-02T23:00:30.270Z,21.38
2023-02-02T23:02:57.026Z,19.38
2023-02-02T23:05:25.025Z,20.80
2023-02-02T23:07:52.078Z,20.08
2023-02-02T23:10:21.212Z,18.88
2023-02-02T23:12:48.221Z,22.00
2023-02-02T23:15:15.601Z,20.85
2023-02-02T23:17:42.199Z,18.85
2023-02-02T23:20:11.300Z,19.73
2023-02-02T23:22:37.764Z,19.08
2023-02-02T23:25:04.976Z,20.27
2023-02-02T23:27:31.557Z,19.08
2023-02-02T23:29:58.058Z,19.45
2023-02-02T23:32:24.739Z,19.75
2023-02-02T23:34:51.167Z,18.65
2023-02-02T23:37:17.807Z,18.63
2023-02-02T23:39:44.298Z,18.52
2023-02-02T23:42:10.754Z,18.73
2023-02-02T23:44:37.430Z,18.58
2023-02-02T23:47:04.244Z,19.80
2023-02-02T23:49:31.454Z,18.20
2023-02-02T23:51:58.017Z,18.55
2023-02-02T23:54:24.795Z,18.58
2023-02-02T23:56:51.448Z,17.20
2023-02-02T23:59:17.927Z,17.85
